createdAt,value
2022-09-11T00:01:28.396Z,0.40
2022-09-11T00:03:56.348Z,0.40
2022-09-11T00:06:29.873Z,0.50
2022-09-11T00:11:31.075Z,0.70
2022-09-11T00:13:58.235Z,0.40
2022-09-11T00:16:34.722Z,0.30
2022-09-11T00:19:04.967Z,0.20
2022-09-11T00:21:31.839Z,0.45
2022-09-11T00:23:58.615Z,0.30
2022-09-11T00:26:25.707Z,0.30
2022-09-11T00:28:52.774Z,0.40
2022-09-11T00:31:22.462Z,0.40
2022-09-11T00:33:49.252Z,0.30
2022-09-11T00:36:18.366Z,0.30
2022-09-11T00:38:45.699Z,0.30
2022-09-11T00:41:23.370Z,0.30
2022-09-11T00:43:55.520Z,0.40
2022-09-11T00:46:26.157Z,0.38
2022-09-11T00:48:53.123Z,0.30
2022-09-11T00:51:25.570Z,0.40
2022-09-11T00:53:55.065Z,0.40
2022-09-11T00:56:25.494Z,0.50
2022-09-11T00:58:54.795Z,0.47
2022-09-11T01:01:21.804Z,0.63
2022-09-11T01:03:48.811Z,0.63
2022-09-11T01:06:16.001Z,0.40
2022-09-11T01:08:43.288Z,0.30
2022-09-11T01:11:15.494Z,0.40
2022-09-11T01:14:03.568Z,0.50
2022-09-11T01:17:15.247Z,0.20
2022-09-11T01:20:07.344Z,0.30
2022-09-11T01:22:43.943Z,0.57
2022-09-11T01:25:28.423Z,0.40
2022-09-11T01:27:58.764Z,0.40
2022-09-11T01:30:37.258Z,0.52
2022-09-11T01:33:18.743Z,0.20
2022-09-11T01:35:51.162Z,0.30
2022-09-11T01:38:22.148Z,0.30
2022-09-11T01:40:59.233Z,0.35
2022-09-11T01:43:30.651Z,0.20
2022-09-11T01:46:01.498Z,0.50
2022-09-11T01:48:47.188Z,0.30
2022-09-11T01:51:21.098Z,0.40
2022-09-11T01:53:51.446Z,0.52
2022-09-11T01:56:26.015Z,0.40
2022-09-11T01:58:58.574Z,0.38
2022-09-11T02:01:30.671Z,0.45
2022-09-11T02:04:19.591Z,0.40
2022-09-11T02:06:52.890Z,0.50
2022-09-11T02:09:24.612Z,0.30
2022-09-11T02:11:54.118Z,0.40
2022-09-11T02:14:42.811Z,0.40
2022-09-11T02:17:24.252Z,0.57
2022-09-11T02:19:53.455Z,0.40
2022-09-11T02:22:20.325Z,0.55
2022-09-11T02:24:47.004Z,0.25
2022-09-11T02:27:18.614Z,0.30
2022-09-11T02:29:45.662Z,0.75
2022-09-11T02:32:12.445Z,0.55
2022-09-11T02:34:41.761Z,0.32
2022-09-11T02:37:36.286Z,0.47
2022-09-11T02:40:19.461Z,0.30
2022-09-11T02:43:16.874Z,0.22
2022-09-11T02:46:03.834Z,0.40
2022-09-11T02:48:56.091Z,0.38
2022-09-11T02:51:34.756Z,0.60
2022-09-11T02:54:26.293Z,0.28
2022-09-11T02:57:07.619Z,0.52
2022-09-11T02:59:40.655Z,0.50
2022-09-11T03:02:12.749Z,0.43
2022-09-11T03:04:39.189Z,0.70
2022-09-11T03:07:05.893Z,0.50
2022-09-11T03:09:34.831Z,0.50
2022-09-11T03:12:02.234Z,0.68
2022-09-11T03:14:28.601Z,0.45
2022-09-11T03:16:56.069Z,0.88
2022-09-11T03:19:22.686Z,0.40
2022-09-11T03:21:49.191Z,0.45
2022-09-11T03:24:15.665Z,0.40
2022-09-11T03:26:42.033Z,0.60
2022-09-11T03:29:08.618Z,0.30
2022-09-11T03:31:38.979Z,0.47
2022-09-11T03:34:06.410Z,0.55
2022-09-11T03:36:34.369Z,0.38
2022-09-11T03:39:01.520Z,0.32
2022-09-11T03:41:28.183Z,0.30
2022-09-11T03:43:54.543Z,1.35
2022-09-11T03:46:20.970Z,0.60
2022-09-11T03:48:47.359Z,0.70
2022-09-11T03:51:14.943Z,0.40
2022-09-11T03:53:42.447Z,0.30
2022-09-11T03:56:08.930Z,0.50
2022-09-11T03:58:35.371Z,0.20
2022-09-11T04:01:01.782Z,0.40
2022-09-11T04:03:28.228Z,0.70
2022-09-11T04:06:00.199Z,0.60
2022-09-11T04:08:27.140Z,0.90
2022-09-11T04:11:05.015Z,0.38
2022-09-11T04:13:37.008Z,0.68
2022-09-11T04:16:15.356Z,0.45
2022-09-11T04:18:43.643Z,0.45
2022-09-11T04:21:13.955Z,0.50
2022-09-11T04:23:41.679Z,0.43
2022-09-11T04:26:19.682Z,0.55
2022-09-11T04:28:46.341Z,0.40
2022-09-11T04:31:13.700Z,0.50
2022-09-11T04:33:40.953Z,0.75
2022-09-11T04:36:10.016Z,0.40
2022-09-11T04:38:38.206Z,0.30
2022-09-11T04:41:06.335Z,0.40
2022-09-11T04:43:34.843Z,0.52
2022-09-11T04:46:02.853Z,0.50
2022-09-11T04:48:29.470Z,0.40
2022-09-11T04:51:01.606Z,0.52
2022-09-11T04:53:28.899Z,0.50
2022-09-11T04:56:10.713Z,0.50
2022-09-11T04:58:37.138Z,0.50
2022-09-11T05:01:16.437Z,0.77
2022-09-11T05:03:43.956Z,0.60
2022-09-11T05:06:12.483Z,0.30
2022-09-11T05:08:38.871Z,0.40
2022-09-11T05:11:05.671Z,0.60
2022-09-11T05:13:36.413Z,0.50
2022-09-11T05:16:11.871Z,0.50
2022-09-11T05:18:40.472Z,0.60
2022-09-11T05:21:14.958Z,0.98
2022-09-11T05:23:42.400Z,0.60
2022-09-11T05:26:15.197Z,0.50
2022-09-11T05:28:41.755Z,0.40
2022-09-11T05:31:16.943Z,0.80
2022-09-11T05:33:46.961Z,0.75
2022-09-11T05:36:15.478Z,0.60
2022-09-11T05:38:43.119Z,0.80
2022-09-11T05:41:11.587Z,0.70
2022-09-11T05:43:39.276Z,0.50
2022-09-11T05:46:07.408Z,0.90
2022-09-11T05:48:36.907Z,0.73
2022-09-11T05:51:10.502Z,0.80
2022-09-11T05:53:37.874Z,0.75
2022-09-11T05:56:17.375Z,0.55
2022-09-11T05:58:48.444Z,0.50
2022-09-11T06:01:17.993Z,0.68
2022-09-11T06:03:44.740Z,0.52
2022-09-11T06:06:12.823Z,0.60
2022-09-11T06:08:42.682Z,0.65
2022-09-11T06:11:09.464Z,0.57
2022-09-11T06:13:41.021Z,0.70
2022-09-11T06:16:10.076Z,1.02
2022-09-11T06:18:37.420Z,0.63
2022-09-11T06:21:09.573Z,0.50
2022-09-11T06:23:37.152Z,0.80
2022-09-11T06:26:12.167Z,0.80
2022-09-11T06:28:39.371Z,0.70
2022-09-11T06:31:08.371Z,0.60
2022-09-11T06:33:36.783Z,0.70
2022-09-11T06:36:05.863Z,0.90
2022-09-11T06:38:32.356Z,0.70
2022-09-11T06:41:03.056Z,0.57
2022-09-11T06:43:30.658Z,0.57
2022-09-11T06:46:19.921Z,0.70
2022-09-11T06:48:48.634Z,0.50
2022-09-11T06:51:17.805Z,0.60
2022-09-11T06:53:45.062Z,0.70
2022-09-11T06:56:13.867Z,0.60
2022-09-11T06:58:41.181Z,0.70
2022-09-11T07:01:10.690Z,0.98
2022-09-11T07:03:39.931Z,0.80
2022-09-11T07:06:06.552Z,0.95
2022-09-11T07:08:33.378Z,0.80
2022-09-11T07:11:06.710Z,0.85
2022-09-11T07:13:37.477Z,0.68
2022-09-11T07:16:08.043Z,0.63
2022-09-11T07:18:39.011Z,0.70
2022-09-11T07:21:06.580Z,0.85
2022-09-11T07:23:34.799Z,1.27
2022-09-11T07:26:05.947Z,0.50
2022-09-11T07:28:32.387Z,0.68
2022-09-11T07:31:11.755Z,1.23
2022-09-11T07:33:39.825Z,0.70
2022-09-11T07:36:08.287Z,0.90
2022-09-11T07:38:34.990Z,0.65
2022-09-11T07:41:01.379Z,1.15
2022-09-11T07:43:27.786Z,1.17
2022-09-11T07:45:55.721Z,1.13
2022-09-11T07:48:22.465Z,1.20
2022-09-11T07:50:59.152Z,1.45
2022-09-11T07:53:25.796Z,2.33
2022-09-11T07:55:52.355Z,1.27
2022-09-11T07:58:18.731Z,1.73
2022-09-11T08:00:45.278Z,1.33
2022-09-11T08:03:11.678Z,1.40
2022-09-11T08:05:38.075Z,1.00
2022-09-11T08:08:04.790Z,0.85
2022-09-11T08:10:31.971Z,0.85
2022-09-11T08:13:00.026Z,0.80
2022-09-11T08:15:27.144Z,1.10
2022-09-11T08:17:54.308Z,1.15
2022-09-11T08:20:21.335Z,1.42
2022-09-11T08:22:47.724Z,1.67
2022-09-11T08:25:14.167Z,1.90
2022-09-11T08:27:40.567Z,2.67
2022-09-11T08:30:07.963Z,2.38
2022-09-11T08:32:34.370Z,2.17
2022-09-11T08:35:00.795Z,3.20
2022-09-11T08:37:27.199Z,2.15
2022-09-11T08:39:53.640Z,2.38
2022-09-11T08:42:20.191Z,2.45
2022-09-11T08:44:50.226Z,2.33
2022-09-11T08:47:21.330Z,2.78
2022-09-11T08:50:01.042Z,2.75
2022-09-11T08:52:27.590Z,2.70
2022-09-11T08:54:57.734Z,2.60
2022-09-11T08:57:36.456Z,2.95
2022-09-11T09:00:19.458Z,2.92
2022-09-11T09:03:04.528Z,2.72
2022-09-11T09:06:13.091Z,2.97
2022-09-11T09:08:50.638Z,2.47
2022-09-11T09:11:31.688Z,3.00
2022-09-11T09:14:21.174Z,3.33
2022-09-11T09:16:53.809Z,3.95
2022-09-11T09:20:04.056Z,2.80
2022-09-11T09:22:51.722Z,2.95
2022-09-11T09:25:22.634Z,3.45
2022-09-11T09:27:54.931Z,2.95
2022-09-11T09:30:27.536Z,2.42
2022-09-11T09:33:13.393Z,3.00
2022-09-11T09:35:44.615Z,2.50
2022-09-11T09:38:18.480Z,3.38
2022-09-11T09:43:26.691Z,3.33
2022-09-11T09:46:11.603Z,3.40
2022-09-11T09:48:39.717Z,2.97
2022-09-11T09:51:10.789Z,2.22
2022-09-11T09:53:45.459Z,2.47
2022-09-11T09:56:17.448Z,2.28
2022-09-11T09:58:54.980Z,2.13
2022-09-11T10:01:44.845Z,2.53
2022-09-11T10:04:16.095Z,2.80
2022-09-11T10:06:45.363Z,2.47
2022-09-11T10:09:28.111Z,1.73
2022-09-11T10:11:58.203Z,2.65
2022-09-11T10:14:49.909Z,3.00
2022-09-11T10:17:32.834Z,2.33
2022-09-11T10:20:19.353Z,2.90
2022-09-11T10:22:46.556Z,2.78
2022-09-11T10:25:27.593Z,2.15
2022-09-11T10:28:09.865Z,1.83
2022-09-11T10:30:39.469Z,2.35
2022-09-11T10:33:18.110Z,2.33
2022-09-11T10:35:55.101Z,2.97
2022-09-11T10:38:26.803Z,1.70
2022-09-11T10:41:09.375Z,2.65
2022-09-11T10:44:03.134Z,1.63
2022-09-11T10:46:41.369Z,1.85
2022-09-11T10:49:22.781Z,2.10
2022-09-11T10:52:00.216Z,1.58
2022-09-11T10:54:58.434Z,2.60
2022-09-11T10:57:24.810Z,1.85
2022-09-11T11:00:06.038Z,1.55
2022-09-11T11:02:35.147Z,2.47
2022-09-11T11:05:06.177Z,1.92
2022-09-11T11:07:40.879Z,1.45
2022-09-11T11:10:25.189Z,3.05
2022-09-11T11:13:06.523Z,1.77
2022-09-11T11:15:51.458Z,1.83
2022-09-11T11:18:36.275Z,1.60
2022-09-11T11:21:26.583Z,1.55
2022-09-11T11:24:01.455Z,1.65
2022-09-11T11:27:05.502Z,1.75
2022-09-11T11:30:00.543Z,1.73
2022-09-11T11:33:26.247Z,1.65
2022-09-11T11:38:34.376Z,1.52
2022-09-11T11:41:12.079Z,1.95
2022-09-11T11:43:40.514Z,1.33
2022-09-11T11:46:34.769Z,1.58
2022-09-11T11:49:05.878Z,0.98
2022-09-11T11:51:39.989Z,1.35
2022-09-11T11:56:48.787Z,1.30
2022-09-11T11:59:31.973Z,1.60
2022-09-11T12:02:13.740Z,1.35
2022-09-11T12:04:55.435Z,1.45
2022-09-11T12:07:22.155Z,1.30
2022-09-11T12:09:50.302Z,2.30
2022-09-11T12:12:19.277Z,1.38
2022-09-11T12:14:55.093Z,1.00
2022-09-11T12:17:25.039Z,1.05
2022-09-11T12:20:10.007Z,1.38
2022-09-11T12:22:42.306Z,1.20
2022-09-11T12:25:20.899Z,0.98
2022-09-11T12:27:48.633Z,1.25
2022-09-11T12:30:18.037Z,1.40
2022-09-11T12:33:11.758Z,1.38
2022-09-11T12:35:49.120Z,0.88
2022-09-11T12:38:38.040Z,1.15
2022-09-11T12:41:15.432Z,1.23
2022-09-11T12:43:41.750Z,0.88
2022-09-11T12:46:32.155Z,1.05
2022-09-11T12:49:23.319Z,0.90
2022-09-11T12:51:53.111Z,1.52
2022-09-11T12:54:25.575Z,1.23
2022-09-11T12:57:19.168Z,0.85
2022-09-11T12:59:52.617Z,1.60
2022-09-11T13:02:37.916Z,0.80
2022-09-11T13:05:16.308Z,1.02
2022-09-11T13:07:46.770Z,1.00
2022-09-11T13:10:35.196Z,1.10
2022-09-11T13:13:04.146Z,0.70
2022-09-11T13:15:38.644Z,0.95
2022-09-11T13:18:25.025Z,0.80
2022-09-11T13:21:12.308Z,0.80
2022-09-11T13:23:38.827Z,0.80
2022-09-11T13:26:07.775Z,1.08
2022-09-11T13:28:44.983Z,0.90
2022-09-11T13:31:19.934Z,0.80
2022-09-11T13:33:51.600Z,0.70
2022-09-11T13:36:21.952Z,0.75
2022-09-11T13:38:56.009Z,0.98
2022-09-11T13:43:58.575Z,0.70
2022-09-11T13:46:33.311Z,0.57
2022-09-11T13:49:06.500Z,0.50
2022-09-11T13:51:33.275Z,0.80
2022-09-11T13:54:08.955Z,0.52
2022-09-11T13:56:45.102Z,0.80
2022-09-11T13:59:38.260Z,0.93
2022-09-11T14:02:21.444Z,1.80
2022-09-11T14:04:52.157Z,3.60
2022-09-11T14:07:22.896Z,5.63
2022-09-11T14:10:00.824Z,14.07
2022-09-11T14:12:29.063Z,41.58
2022-09-11T14:14:59.852Z,147.27
2022-09-11T14:17:26.549Z,114.63
2022-09-11T14:19:58.936Z,72.68
2022-09-11T14:22:31.163Z,148.02
2022-09-11T14:25:23.871Z,122.97
2022-09-11T14:27:50.473Z,79.90
2022-09-11T14:30:43.962Z,69.47
2022-09-11T14:33:24.046Z,93.70
2022-09-11T14:35:53.333Z,97.05
2022-09-11T14:38:23.393Z,78.45
2022-09-11T14:40:57.156Z,49.90
2022-09-11T14:43:30.924Z,44.28
2022-09-11T14:45:58.116Z,30.98
2022-09-11T14:48:26.295Z,27.65
2022-09-11T14:50:52.948Z,26.08
2022-09-11T14:53:30.554Z,20.35
2022-09-11T14:55:58.818Z,14.43
2022-09-11T14:58:26.550Z,10.63
2022-09-11T15:00:53.442Z,7.35
2022-09-11T15:03:20.524Z,6.72
2022-09-11T15:05:53.714Z,4.97
2022-09-11T15:08:20.170Z,3.60
2022-09-11T15:10:48.677Z,3.50
2022-09-11T15:13:15.444Z,2.58
2022-09-11T15:15:42.040Z,2.42
2022-09-11T15:18:09.334Z,2.05
2022-09-11T15:20:36.234Z,2.50
2022-09-11T15:23:03.108Z,1.40
2022-09-11T15:25:29.601Z,2.03
2022-09-11T15:27:55.991Z,2.25
2022-09-11T15:30:22.507Z,1.75
2022-09-11T15:32:49.367Z,2.47
2022-09-11T15:35:18.244Z,1.25
2022-09-11T15:37:46.713Z,1.50
2022-09-11T15:40:13.706Z,1.00
2022-09-11T15:42:40.343Z,1.23
2022-09-11T15:45:07.888Z,0.98
2022-09-11T15:47:34.286Z,0.77
2022-09-11T15:50:00.900Z,0.77
2022-09-11T15:52:27.409Z,1.10
2022-09-11T15:54:53.881Z,0.90
2022-09-11T15:57:20.392Z,1.10
2022-09-11T15:59:46.839Z,0.73
2022-09-11T16:02:15.608Z,1.30
2022-09-11T16:04:42.048Z,1.20
2022-09-11T16:07:08.534Z,1.02
2022-09-11T16:09:35.235Z,0.77
2022-09-11T16:12:01.936Z,1.02
2022-09-11T16:14:32.676Z,1.08
2022-09-11T16:17:00.405Z,1.42
2022-09-11T16:19:28.389Z,0.90
2022-09-11T16:22:01.003Z,1.15
2022-09-11T16:24:29.036Z,1.25
2022-09-11T16:26:55.875Z,0.80
2022-09-11T16:29:24.584Z,0.65
2022-09-11T16:31:51.087Z,0.70
2022-09-11T16:34:20.415Z,0.77
2022-09-11T16:36:46.838Z,0.70
2022-09-11T16:39:16.122Z,0.60
2022-09-11T16:41:43.132Z,0.82
2022-09-11T16:44:12.760Z,0.50
2022-09-11T16:46:40.639Z,0.65
2022-09-11T16:49:07.023Z,0.60
2022-09-11T16:51:34.118Z,0.93
2022-09-11T16:54:00.961Z,1.52
2022-09-11T16:56:27.452Z,0.60
2022-09-11T16:58:54.660Z,0.60
2022-09-11T17:01:26.883Z,0.80
2022-09-11T17:03:55.881Z,0.88
2022-09-11T17:06:24.670Z,0.50
2022-09-11T17:08:51.526Z,1.00
2022-09-11T17:11:21.691Z,0.60
2022-09-11T17:13:49.323Z,0.70
2022-09-11T17:16:20.283Z,0.80
2022-09-11T17:18:53.868Z,0.70
2022-09-11T17:21:23.595Z,0.57
2022-09-11T17:23:51.787Z,0.73
2022-09-11T17:26:18.344Z,0.90
2022-09-11T17:28:47.197Z,0.65
2022-09-11T17:31:15.499Z,0.95
2022-09-11T17:33:43.341Z,0.50
2022-09-11T17:36:11.798Z,0.50
2022-09-11T17:38:39.421Z,0.57
2022-09-11T17:41:08.191Z,0.70
2022-09-11T17:43:36.538Z,0.50
2022-09-11T17:46:05.276Z,0.68
2022-09-11T17:48:31.867Z,0.73
2022-09-11T17:51:11.042Z,0.85
2022-09-11T17:53:39.868Z,0.68
2022-09-11T17:56:10.657Z,0.52
2022-09-11T17:58:42.110Z,0.90
2022-09-11T18:01:08.929Z,0.70
2022-09-11T18:03:35.910Z,0.75
2022-09-11T18:06:04.750Z,0.70
2022-09-11T18:08:33.157Z,0.75
2022-09-11T18:11:01.137Z,1.00
2022-09-11T18:13:34.555Z,1.10
2022-09-11T18:16:02.610Z,0.88
2022-09-11T18:18:29.043Z,0.77
2022-09-11T18:20:55.477Z,0.95
2022-09-11T18:23:24.910Z,0.70
2022-09-11T18:25:51.631Z,0.75
2022-09-11T18:28:19.935Z,0.52
2022-09-11T18:30:47.299Z,1.40
2022-09-11T18:33:16.438Z,0.70
2022-09-11T18:35:44.224Z,0.60
2022-09-11T18:38:10.806Z,0.70
2022-09-11T18:40:37.653Z,1.45
2022-09-11T18:43:06.255Z,1.27
2022-09-11T18:45:35.600Z,0.80
2022-09-11T18:48:03.352Z,0.93
2022-09-11T18:50:30.091Z,1.00
2022-09-11T18:52:56.600Z,0.60
2022-09-11T18:55:23.041Z,0.60
2022-09-11T18:57:50.808Z,0.52
2022-09-11T19:00:18.302Z,1.02
2022-09-11T19:02:46.740Z,0.80
2022-09-11T19:05:15.468Z,0.80
2022-09-11T19:07:43.894Z,0.98
2022-09-11T19:10:12.429Z,0.93
2022-09-11T19:12:40.110Z,0.82
2022-09-11T19:15:10.574Z,0.75
2022-09-11T19:17:38.233Z,0.93
2022-09-11T19:20:12.554Z,1.20
2022-09-11T19:25:09.075Z,1.33
2022-09-11T19:27:36.423Z,1.25
2022-09-11T19:30:06.122Z,0.95
2022-09-11T19:32:33.178Z,0.88
2022-09-11T19:35:00.242Z,0.88
2022-09-11T19:37:28.290Z,0.88
2022-09-11T19:39:54.838Z,0.98
2022-09-11T19:42:21.274Z,0.90
2022-09-11T19:44:47.712Z,0.80
2022-09-11T19:47:14.077Z,1.50
2022-09-11T19:49:40.471Z,1.02
2022-09-11T19:52:08.141Z,0.68
2022-09-11T19:54:35.394Z,1.27
2022-09-11T19:57:02.466Z,0.85
2022-09-11T19:59:28.894Z,0.90
2022-09-11T20:01:55.371Z,0.80
2022-09-11T20:04:22.078Z,1.10
2022-09-11T20:09:30.480Z,0.70
2022-09-11T20:11:58.167Z,0.95
2022-09-11T20:14:24.532Z,0.80
2022-09-11T20:16:50.968Z,0.85
2022-09-11T20:19:17.460Z,0.88
2022-09-11T20:21:43.903Z,1.05
2022-09-11T20:24:10.514Z,0.90
2022-09-11T20:26:36.962Z,1.23
2022-09-11T20:29:11.758Z,0.77
2022-09-11T20:31:47.998Z,0.95
2022-09-11T20:34:19.062Z,0.88
2022-09-11T20:36:46.189Z,1.00
2022-09-11T20:39:13.908Z,1.30
2022-09-11T20:41:40.393Z,1.00
2022-09-11T20:44:06.998Z,1.00
2022-09-11T20:46:33.430Z,1.00
2022-09-11T20:49:00.794Z,1.02
2022-09-11T20:51:27.682Z,0.70
2022-09-11T20:53:55.555Z,0.98
2022-09-11T20:56:25.244Z,0.77
2022-09-11T20:58:52.150Z,1.35
2022-09-11T21:01:22.068Z,0.88
2022-09-11T21:03:54.583Z,1.05
2022-09-11T21:06:26.005Z,0.80
2022-09-11T21:08:58.263Z,0.80
2022-09-11T21:11:26.617Z,0.85
2022-09-11T21:13:53.031Z,0.63
2022-09-11T21:16:20.373Z,1.00
2022-09-11T21:18:51.423Z,0.90
2022-09-11T21:21:18.907Z,1.10
2022-09-11T21:23:45.530Z,1.17
2022-09-11T21:26:13.853Z,0.80
2022-09-11T21:28:40.667Z,0.73
2022-09-11T21:31:07.212Z,1.05
2022-09-11T21:33:34.573Z,1.35
2022-09-11T21:36:01.019Z,0.88
2022-09-11T21:38:29.391Z,1.10
2022-09-11T21:41:00.962Z,0.85
2022-09-11T21:43:28.029Z,0.60
2022-09-11T21:45:54.533Z,0.95
2022-09-11T21:48:21.589Z,0.90
2022-09-11T21:50:48.084Z,0.93
2022-09-11T21:53:14.697Z,0.80
2022-09-11T21:55:43.650Z,0.70
2022-09-11T21:58:20.665Z,0.85
2022-09-11T22:00:48.542Z,0.82
2022-09-11T22:03:17.095Z,0.80
2022-09-11T22:05:45.052Z,0.80
2022-09-11T22:08:13.302Z,0.95
2022-09-11T22:10:48.888Z,0.88
2022-09-11T22:13:16.893Z,0.77
2022-09-11T22:15:46.278Z,1.10
2022-09-11T22:18:13.197Z,0.70
2022-09-11T22:20:41.151Z,0.90
2022-09-11T22:23:08.632Z,0.82
2022-09-11T22:25:36.796Z,0.90
2022-09-11T22:28:04.285Z,1.15
2022-09-11T22:30:30.793Z,0.60
2022-09-11T22:32:57.355Z,0.57
2022-09-11T22:35:23.785Z,0.70
2022-09-11T22:37:50.175Z,0.70
2022-09-11T22:40:16.647Z,0.80
2022-09-11T22:42:43.031Z,0.70
2022-09-11T22:45:09.606Z,0.77
2022-09-11T22:47:36.053Z,0.70
2022-09-11T22:50:02.605Z,0.82
2022-09-11T22:52:29.157Z,0.57
2022-09-11T22:54:55.553Z,0.88
2022-09-11T22:57:21.990Z,0.70
2022-09-11T22:59:49.003Z,0.80
2022-09-11T23:02:15.917Z,0.50
2022-09-11T23:05:02.372Z,0.57
2022-09-11T23:07:29.176Z,0.80
2022-09-11T23:09:55.552Z,0.80
2022-09-11T23:12:21.924Z,0.88
2022-09-11T23:14:48.365Z,0.70
2022-09-11T23:17:14.907Z,0.68
2022-09-11T23:19:41.287Z,0.50
2022-09-11T23:22:07.675Z,0.73
2022-09-11T23:24:34.067Z,0.73
2022-09-11T23:27:00.489Z,0.63
2022-09-11T23:29:27.240Z,0.70
2022-09-11T23:31:56.524Z,0.35
2022-09-11T23:34:23.018Z,0.57
2022-09-11T23:36:49.385Z,0.40
2022-09-11T23:39:15.786Z,0.70
2022-09-11T23:41:42.203Z,0.70
2022-09-11T23:44:09.016Z,0.55
2022-09-11T23:46:35.386Z,0.60
2022-09-11T23:49:01.784Z,0.50
2022-09-11T23:51:28.202Z,0.52
2022-09-11T23:53:54.673Z,0.40
2022-09-11T23:56:22.350Z,0.55
2022-09-11T23:58:49.242Z,0.47
